createdAt,value
2022-09-18T00:03:33.400Z,11.10
2022-09-18T00:08:38.578Z,7.60
2022-09-18T00:13:43.018Z,8.10
2022-09-18T00:18:46.502Z,9.40
2022-09-18T00:23:49.241Z,9.30
2022-09-18T00:28:53.197Z,8.30
2022-09-18T00:34:00.897Z,7.80
2022-09-18T00:39:03.791Z,8.60
2022-09-18T00:44:42.008Z,7.70
2022-09-18T00:50:17.029Z,7.20
2022-09-18T00:55:24.269Z,7.90
2022-09-18T01:00:29.412Z,8.00
2022-09-18T01:05:53.528Z,6.60
2022-09-18T01:11:17.825Z,8.10
2022-09-18T01:16:58.088Z,8.50
2022-09-18T01:22:17.710Z,7.50
2022-09-18T01:27:35.470Z,7.70
2022-09-18T01:32:48.623Z,8.00
2022-09-18T01:37:55.905Z,9.30
2022-09-18T01:43:02.720Z,8.30
2022-09-18T01:48:08.805Z,8.60
2022-09-18T01:53:19.964Z,8.90
2022-09-18T01:58:25.125Z,9.70
2022-09-18T02:03:32.832Z,7.90
2022-09-18T02:08:44.403Z,9.20
2022-09-18T02:14:11.526Z,9.50
2022-09-18T02:19:28.638Z,9.60
2022-09-18T02:24:36.307Z,8.10
2022-09-18T02:29:41.965Z,7.40
2022-09-18T02:34:44.671Z,8.10
2022-09-18T02:40:07.808Z,6.40
2022-09-18T02:45:26.403Z,8.40
2022-09-18T02:51:07.423Z,8.00
2022-09-18T02:56:23.182Z,6.70
2022-09-18T03:01:27.407Z,6.50
2022-09-18T03:06:30.088Z,7.90
2022-09-18T03:11:33.103Z,8.00
2022-09-18T03:16:35.873Z,7.90
2022-09-18T03:21:38.870Z,7.80
2022-09-18T03:26:41.563Z,8.60
2022-09-18T03:31:44.734Z,5.90
2022-09-18T03:41:50.014Z,6.00
2022-09-18T03:46:52.777Z,8.10
2022-09-18T03:51:55.494Z,5.50
2022-09-18T03:56:58.192Z,7.60
2022-09-18T04:02:00.997Z,8.70
2022-09-18T04:07:04.407Z,6.60
2022-09-18T04:12:07.320Z,7.60
2022-09-18T04:17:11.134Z,8.30
2022-09-18T04:22:13.805Z,7.00
2022-09-18T04:27:16.695Z,7.50
2022-09-18T04:32:19.382Z,8.90
2022-09-18T04:37:22.140Z,10.70
2022-09-18T04:42:24.828Z,7.80
2022-09-18T04:47:27.763Z,8.20
2022-09-18T04:52:31.066Z,7.60
2022-09-18T04:57:33.778Z,7.70
2022-09-18T05:02:36.509Z,7.00
2022-09-18T05:07:39.204Z,6.40
2022-09-18T05:12:42.588Z,7.20
2022-09-18T05:17:45.255Z,6.40
2022-09-18T05:22:47.914Z,5.70
2022-09-18T05:28:09.950Z,7.30
2022-09-18T05:33:14.490Z,5.40
2022-09-18T05:38:17.163Z,5.00
2022-09-18T05:43:19.836Z,6.10
2022-09-18T05:48:22.868Z,6.90
2022-09-18T05:53:25.528Z,6.20
2022-09-18T05:58:28.262Z,7.80
2022-09-18T06:03:30.907Z,5.90
2022-09-18T06:08:33.565Z,6.60
2022-09-18T06:13:36.228Z,5.90
2022-09-18T06:18:38.962Z,5.70
2022-09-18T06:23:42.771Z,7.10
2022-09-18T06:28:46.882Z,6.30
2022-09-18T06:33:49.555Z,6.20
2022-09-18T06:38:52.208Z,7.50
2022-09-18T06:43:54.871Z,7.30
2022-09-18T06:48:57.538Z,7.00
2022-09-18T06:54:00.303Z,8.40
2022-09-18T06:59:03.176Z,8.50
2022-09-18T07:04:06.114Z,6.10
2022-09-18T07:09:09.593Z,7.00
2022-09-18T07:14:12.350Z,7.50
2022-09-18T07:19:15.078Z,6.00
2022-09-18T07:24:17.764Z,6.00
2022-09-18T07:29:20.452Z,6.80
2022-09-18T07:34:23.248Z,7.90
2022-09-18T07:39:25.942Z,7.40
2022-09-18T07:44:30.702Z,7.80
2022-09-18T07:49:33.638Z,7.80
2022-09-18T07:54:36.527Z,7.10
2022-09-18T07:59:39.665Z,8.30
2022-09-18T08:09:44.898Z,6.40
2022-09-18T08:14:47.582Z,6.80
2022-09-18T08:19:50.774Z,6.70
2022-09-18T08:24:53.467Z,5.90
2022-09-18T08:29:57.896Z,5.20
2022-09-18T08:35:01.805Z,6.00
2022-09-18T08:40:10.825Z,7.40
2022-09-18T08:45:17.042Z,6.80
2022-09-18T08:50:38.744Z,5.90
2022-09-18T08:55:44.965Z,6.10
2022-09-18T09:00:50.735Z,6.20
2022-09-18T09:06:15.518Z,7.70
2022-09-18T09:11:44.003Z,7.90
2022-09-18T09:17:04.684Z,7.90
2022-09-18T09:22:17.831Z,7.60
2022-09-18T09:32:44.521Z,7.90
2022-09-18T09:37:48.830Z,8.30
2022-09-18T09:43:06.359Z,8.50
2022-09-18T09:48:34.010Z,8.20
2022-09-18T09:53:36.753Z,9.70
2022-09-18T09:58:39.412Z,8.10
2022-09-18T10:04:01.358Z,7.90
2022-09-18T10:09:32.901Z,8.20
2022-09-18T10:14:38.188Z,7.80
2022-09-18T10:19:43.230Z,8.20
2022-09-18T10:25:13.974Z,7.50
2022-09-18T10:30:16.796Z,10.30
2022-09-18T10:35:42.642Z,10.00
2022-09-18T10:40:46.077Z,9.20
2022-09-18T10:45:56.244Z,10.70
2022-09-18T10:51:02.188Z,11.30
2022-09-18T10:56:16.995Z,11.50
2022-09-18T11:01:20.555Z,12.30
2022-09-18T11:06:26.099Z,9.20
2022-09-18T11:11:34.769Z,9.60
2022-09-18T11:16:41.916Z,10.80
2022-09-18T11:21:50.952Z,11.70
2022-09-18T11:26:57.398Z,11.10
2022-09-18T11:32:16.380Z,10.00
2022-09-18T11:37:33.767Z,8.40
2022-09-18T11:42:47.757Z,9.30
2022-09-18T11:48:22.636Z,7.90
2022-09-18T11:53:41.995Z,10.40
2022-09-18T11:58:55.894Z,8.20
2022-09-18T12:04:23.760Z,8.50
2022-09-18T12:09:39.090Z,7.10
2022-09-18T12:15:01.024Z,7.90
2022-09-18T12:20:16.320Z,7.70
2022-09-18T12:25:26.061Z,8.10
2022-09-18T12:30:43.313Z,7.30
2022-09-18T12:35:53.358Z,6.80
2022-09-18T12:41:17.834Z,8.60
2022-09-18T12:46:45.733Z,6.60
2022-09-18T12:52:04.745Z,7.00
2022-09-18T12:57:14.898Z,6.60
2022-09-18T13:02:32.802Z,7.40
2022-09-18T13:07:41.497Z,6.00
2022-09-18T13:12:56.425Z,7.70
2022-09-18T13:18:20.936Z,9.10
2022-09-18T13:23:41.980Z,8.60
2022-09-18T13:28:44.843Z,9.10
2022-09-18T13:34:18.098Z,10.20
2022-09-18T13:39:27.087Z,9.30
2022-09-18T13:44:34.848Z,10.20
2022-09-18T13:50:00.219Z,8.50
2022-09-18T13:55:16.334Z,8.70
2022-09-18T14:00:21.717Z,9.50
2022-09-18T14:05:30.360Z,8.20
2022-09-18T14:10:38.515Z,8.00
2022-09-18T14:15:59.839Z,7.80
2022-09-18T14:21:11.853Z,7.90
2022-09-18T14:26:37.319Z,7.90
2022-09-18T14:31:47.431Z,8.40
2022-09-18T14:36:56.299Z,9.70
2022-09-18T14:42:19.883Z,13.80
2022-09-18T14:47:25.831Z,10.10
2022-09-18T14:52:31.634Z,8.80
2022-09-18T14:57:42.835Z,9.10
2022-09-18T15:02:50.705Z,9.10
2022-09-18T15:07:58.886Z,7.40
2022-09-18T15:13:05.990Z,7.30
2022-09-18T15:18:23.585Z,7.90
2022-09-18T15:23:38.498Z,9.00
2022-09-18T15:28:45.486Z,10.40
2022-09-18T15:34:03.301Z,7.70
2022-09-18T15:39:07.892Z,6.80
2022-09-18T15:44:39.815Z,6.50
2022-09-18T15:49:42.534Z,7.10
2022-09-18T15:55:14.658Z,6.50
2022-09-18T16:00:19.019Z,6.00
2022-09-18T16:05:22.293Z,17.80
2022-09-18T16:10:34.016Z,16.80
2022-09-18T16:15:37.239Z,17.70
2022-09-18T16:20:41.554Z,19.40
2022-09-18T16:25:44.892Z,20.30
2022-09-18T16:30:47.992Z,16.40
2022-09-18T16:41:23.222Z,8.20
2022-09-18T16:46:31.279Z,4.90
2022-09-18T16:51:34.050Z,24.00
2022-09-18T16:56:52.998Z,3.90
2022-09-18T17:02:05.403Z,7.90
2022-09-18T17:07:08.160Z,5.00
2022-09-18T17:12:10.817Z,3.70
2022-09-18T17:17:13.657Z,3.40
2022-09-18T17:22:19.003Z,3.50
2022-09-18T17:27:25.275Z,2.90
2022-09-18T17:32:27.995Z,3.80
2022-09-18T17:37:30.997Z,3.90
2022-09-18T17:42:33.894Z,3.80
2022-09-18T17:47:36.607Z,3.30
2022-09-18T17:52:39.268Z,4.10
2022-09-18T17:57:42.089Z,8.60
2022-09-18T18:02:44.791Z,7.90
2022-09-18T18:07:47.985Z,6.30
2022-09-18T18:17:53.723Z,13.60
2022-09-18T18:22:56.911Z,8.90
2022-09-18T18:27:59.601Z,6.60
2022-09-18T18:33:03.532Z,7.70
2022-09-18T18:38:06.222Z,4.10
2022-09-18T18:43:15.447Z,2.40
2022-09-18T18:48:18.666Z,1.70
2022-09-18T18:58:24.969Z,1.80
2022-09-18T19:03:28.101Z,2.70
2022-09-18T19:08:34.471Z,2.30
2022-09-18T19:13:41.440Z,2.10
2022-09-18T19:18:44.133Z,1.70
2022-09-18T19:23:52.298Z,2.00
2022-09-18T19:28:59.543Z,1.60
2022-09-18T19:34:03.172Z,1.90
2022-09-18T19:39:07.803Z,1.80
2022-09-18T19:44:33.822Z,2.30
2022-09-18T19:49:38.205Z,2.00
2022-09-18T19:54:40.851Z,2.20
2022-09-18T19:59:44.393Z,2.00
2022-09-18T20:04:47.058Z,2.20
2022-09-18T20:09:49.845Z,2.70
2022-09-18T20:14:52.506Z,2.00
2022-09-18T20:19:56.689Z,2.20
2022-09-18T20:25:00.101Z,2.80
2022-09-18T20:30:05.260Z,2.20
2022-09-18T20:35:08.686Z,1.90
2022-09-18T20:40:12.641Z,2.10
2022-09-18T20:45:15.493Z,2.20
2022-09-18T20:50:21.391Z,2.40
2022-09-18T20:55:25.311Z,2.70
2022-09-18T21:00:29.055Z,2.60
2022-09-18T21:05:32.548Z,2.40
2022-09-18T21:10:46.786Z,2.60
2022-09-18T21:15:49.466Z,2.00
2022-09-18T21:21:04.404Z,1.90
2022-09-18T21:26:15.653Z,2.40
2022-09-18T21:31:21.354Z,2.20
2022-09-18T21:36:26.034Z,1.80
2022-09-18T21:41:28.709Z,1.90
2022-09-18T21:46:31.408Z,1.90
2022-09-18T21:51:36.161Z,2.10
2022-09-18T21:56:38.875Z,2.00
2022-09-18T22:01:42.925Z,2.00
2022-09-18T22:06:47.132Z,2.50
2022-09-18T22:11:51.555Z,2.20
2022-09-18T22:16:55.577Z,1.90
2022-09-18T22:21:58.245Z,2.20
2022-09-18T22:27:12.946Z,2.40
2022-09-18T22:32:15.564Z,2.50
2022-09-18T22:37:18.278Z,2.20
2022-09-18T22:42:21.051Z,2.10
2022-09-18T22:47:23.790Z,2.30
2022-09-18T22:52:26.486Z,2.00
2022-09-18T22:57:29.122Z,2.20
2022-09-18T23:02:32.345Z,2.20
2022-09-18T23:12:38.622Z,2.40
2022-09-18T23:17:44.135Z,2.20
2022-09-18T23:22:46.801Z,2.90
2022-09-18T23:27:52.287Z,2.40
2022-09-18T23:32:54.950Z,3.10
2022-09-18T23:37:58.602Z,2.40
2022-09-18T23:43:01.248Z,2.20
2022-09-18T23:48:04.062Z,2.30
2022-09-18T23:53:06.716Z,2.70
2022-09-18T23:58:09.387Z,2.50
